sensor_id;sensor_type;location;lat;lon;timestamp;pressure;altitude;pressure_sealevel;temperature;humidity
73267;BME280;61495;53.400;7.608;2023-05-23T00:00:40;101452.88;;;14.98;84.81
73267;BME280;61495;53.400;7.608;2023-05-23T00:03:14;101444.63;;;14.93;86.11
73267;BME280;61495;53.400;7.608;2023-05-23T00:05:40;101460.84;;;14.93;85.62
73267;BME280;61495;53.400;7.608;2023-05-23T00:08:05;101448.81;;;14.89;86.63
73267;BME280;61495;53.400;7.608;2023-05-23T00:10:30;101459.38;;;14.91;85.51
73267;BME280;61495;53.400;7.608;2023-05-23T00:12:56;101443.63;;;14.88;87.40
73267;BME280;61495;53.400;7.608;2023-05-23T00:15:22;101452.53;;;14.88;85.29
73267;BME280;61495;53.400;7.608;2023-05-23T00:17:47;101444.25;;;14.90;85.19
73267;BME280;61495;53.400;7.608;2023-05-23T00:20:13;101442.00;;;14.87;85.77
73267;BME280;61495;53.400;7.608;2023-05-23T00:22:38;101438.50;;;14.80;87.01
73267;BME280;61495;53.400;7.608;2023-05-23T00:25:08;101451.56;;;14.83;86.18
73267;BME280;61495;53.400;7.608;2023-05-23T00:27:34;101449.09;;;14.81;85.74
73267;BME280;61495;53.400;7.608;2023-05-23T00:29:59;101449.09;;;14.81;86.91
73267;BME280;61495;53.400;7.608;2023-05-23T00:32:25;101453.88;;;14.79;85.95
73267;BME280;61495;53.400;7.608;2023-05-23T00:34:50;101445.19;;;14.77;85.89
73267;BME280;61495;53.400;7.608;2023-05-23T00:37:18;101450.56;;;14.77;85.76
73267;BME280;61495;53.400;7.608;2023-05-23T00:39:44;101450.78;;;14.76;86.85
73267;BME280;61495;53.400;7.608;2023-05-23T00:42:10;101454.09;;;14.78;87.48
73267;BME280;61495;53.400;7.608;2023-05-23T00:44:35;101459.94;;;14.75;87.33
73267;BME280;61495;53.400;7.608;2023-05-23T00:47:01;101459.94;;;14.75;86.04
73267;BME280;61495;53.400;7.608;2023-05-23T00:49:26;101459.69;;;14.76;86.25
73267;BME280;61495;53.400;7.608;2023-05-23T00:51:52;101463.91;;;14.72;87.26
73267;BME280;61495;53.400;7.608;2023-05-23T00:54:25;101455.81;;;14.72;86.59
73267;BME280;61495;53.400;7.608;2023-05-23T00:56:52;101459.09;;;14.74;87.18
73267;BME280;61495;53.400;7.608;2023-05-23T00:59:18;101464.34;;;14.69;87.22
73267;BME280;61495;53.400;7.608;2023-05-23T01:01:49;101467.03;;;14.69;86.89
73267;BME280;61495;53.400;7.608;2023-05-23T01:04:15;101462.72;;;14.62;88.68
73267;BME280;61495;53.400;7.608;2023-05-23T01:06:41;101463.13;;;14.59;88.60
73267;BME280;61495;53.400;7.608;2023-05-23T01:09:12;101464.41;;;14.56;88.80
73267;BME280;61495;53.400;7.608;2023-05-23T01:11:57;101467.69;;;14.58;88.32
73267;BME280;61495;53.400;7.608;2023-05-23T01:14:33;101462.75;;;14.55;89.43
73267;BME280;61495;53.400;7.608;2023-05-23T01:17:10;101455.72;;;14.54;88.40
73267;BME280;61495;53.400;7.608;2023-05-23T01:19:45;101462.16;;;14.53;89.63
73267;BME280;61495;53.400;7.608;2023-05-23T01:25:42;101456.56;;;14.55;88.16
73267;BME280;61495;53.400;7.608;2023-05-23T01:28:14;101462.16;;;14.53;88.59
73267;BME280;61495;53.400;7.608;2023-05-23T01:30:43;101448.50;;;14.48;88.73
73267;BME280;61495;53.400;7.608;2023-05-23T01:33:26;101449.53;;;14.47;89.07
73267;BME280;61495;53.400;7.608;2023-05-23T01:35:52;101448.66;;;14.53;86.75
73267;BME280;61495;53.400;7.608;2023-05-23T01:38:20;101453.47;;;14.51;88.73
73267;BME280;61495;53.400;7.608;2023-05-23T01:40:45;101456.59;;;14.48;88.35
73267;BME280;61495;53.400;7.608;2023-05-23T01:43:10;101465.50;;;14.49;88.44
73267;BME280;61495;53.400;7.608;2023-05-23T01:45:36;101461.16;;;14.48;87.88
73267;BME280;61495;53.400;7.608;2023-05-23T01:48:02;101464.06;;;14.46;89.58
73267;BME280;61495;53.400;7.608;2023-05-23T01:50:28;101459.13;;;14.43;88.38
73267;BME280;61495;53.400;7.608;2023-05-23T01:52:56;101474.47;;;14.42;88.61
73267;BME280;61495;53.400;7.608;2023-05-23T01:55:22;101467.00;;;14.38;87.75
73267;BME280;61495;53.400;7.608;2023-05-23T01:57:50;101471.97;;;14.41;88.80
73267;BME280;61495;53.400;7.608;2023-05-23T02:00:18;101470.75;;;14.37;88.35
73267;BME280;61495;53.400;7.608;2023-05-23T02:02:44;101467.44;;;14.35;89.35
73267;BME280;61495;53.400;7.608;2023-05-23T02:05:09;101464.53;;;14.30;89.66
73267;BME280;61495;53.400;7.608;2023-05-23T02:07:35;101474.53;;;14.23;89.68
73267;BME280;61495;53.400;7.608;2023-05-23T02:10:02;101491.50;;;14.30;89.93
73267;BME280;61495;53.400;7.608;2023-05-23T02:12:28;101478.88;;;14.24;88.30
73267;BME280;61495;53.400;7.608;2023-05-23T02:14:53;101492.75;;;14.27;89.56
73267;BME280;61495;53.400;7.608;2023-05-23T02:17:19;101498.97;;;14.28;88.46
73267;BME280;61495;53.400;7.608;2023-05-23T02:19:46;101504.81;;;14.25;89.98
73267;BME280;61495;53.400;7.608;2023-05-23T02:22:12;101504.16;;;14.23;88.48
73267;BME280;61495;53.400;7.608;2023-05-23T02:24:38;101505.66;;;14.19;89.23
73267;BME280;61495;53.400;7.608;2023-05-23T02:27:03;101513.91;;;14.24;88.25
73267;BME280;61495;53.400;7.608;2023-05-23T02:29:29;101512.69;;;14.20;89.71
73267;BME280;61495;53.400;7.608;2023-05-23T02:31:54;101521.41;;;14.22;88.70
73267;BME280;61495;53.400;7.608;2023-05-23T02:34:20;101522.84;;;14.18;89.31
73267;BME280;61495;53.400;7.608;2023-05-23T02:36:45;101524.72;;;14.17;89.63
73267;BME280;61495;53.400;7.608;2023-05-23T02:39:10;101523.50;;;14.13;89.56
73267;BME280;61495;53.400;7.608;2023-05-23T02:41:36;101521.84;;;14.12;88.75
73267;BME280;61495;53.400;7.608;2023-05-23T02:44:02;101530.94;;;14.18;88.25
73267;BME280;61495;53.400;7.608;2023-05-23T02:46:27;101532.19;;;14.15;88.61
73267;BME280;61495;53.400;7.608;2023-05-23T02:48:52;101525.16;;;14.08;89.94
73267;BME280;61495;53.400;7.608;2023-05-23T02:51:18;101519.41;;;13.98;91.08
73267;BME280;61495;53.400;7.608;2023-05-23T02:53:43;101524.81;;;13.98;90.01
73267;BME280;61495;53.400;7.608;2023-05-23T02:56:08;101528.94;;;14.00;89.99
73267;BME280;61495;53.400;7.608;2023-05-23T02:58:34;101535.34;;;13.99;89.91
73267;BME280;61495;53.400;7.608;2023-05-23T03:01:03;101541.81;;;13.91;90.37
73267;BME280;61495;53.400;7.608;2023-05-23T03:03:31;101542.00;;;13.90;89.93
73267;BME280;61495;53.400;7.608;2023-05-23T03:05:57;101544.09;;;13.88;90.61
73267;BME280;61495;53.400;7.608;2023-05-23T03:08:23;101543.06;;;13.82;89.25
73267;BME280;61495;53.400;7.608;2023-05-23T03:10:48;101552.19;;;13.81;90.80
73267;BME280;61495;53.400;7.608;2023-05-23T03:13:14;101552.59;;;13.78;90.83
73267;BME280;61495;53.400;7.608;2023-05-23T03:15:40;101548.06;;;13.79;90.39
73267;BME280;61495;53.400;7.608;2023-05-23T03:18:05;101544.94;;;13.75;91.23
73267;BME280;61495;53.400;7.608;2023-05-23T03:20:30;101543.91;;;13.76;90.05
73267;BME280;61495;53.400;7.608;2023-05-23T03:22:56;101548.06;;;13.72;90.55
73267;BME280;61495;53.400;7.608;2023-05-23T03:25:21;101559.25;;;13.69;90.86
73267;BME280;61495;53.400;7.608;2023-05-23T03:27:47;101548.50;;;13.56;90.84
73267;BME280;61495;53.400;7.608;2023-05-23T03:30:12;101554.31;;;13.53;91.58
73267;BME280;61495;53.400;7.608;2023-05-23T03:32:41;101551.81;;;13.58;90.70
73267;BME280;61495;53.400;7.608;2023-05-23T03:35:07;101563.84;;;13.62;90.21
73267;BME280;61495;53.400;7.608;2023-05-23T03:37:32;101574.59;;;13.62;90.03
73267;BME280;61495;53.400;7.608;2023-05-23T03:39:58;101556.59;;;13.56;90.14
73267;BME280;61495;53.400;7.608;2023-05-23T03:42:23;101589.50;;;13.45;91.49
73267;BME280;61495;53.400;7.608;2023-05-23T03:44:48;101573.16;;;13.40;90.91
73267;BME280;61495;53.400;7.608;2023-05-23T03:47:14;101590.75;;;13.43;90.70
73267;BME280;61495;53.400;7.608;2023-05-23T03:49:39;101576.25;;;13.44;90.57
73267;BME280;61495;53.400;7.608;2023-05-23T03:52:04;101600.47;;;13.37;91.43
73267;BME280;61495;53.400;7.608;2023-05-23T03:54:30;101591.19;;;13.33;90.70
73267;BME280;61495;53.400;7.608;2023-05-23T03:56:55;101599.66;;;13.30;91.41
73267;BME280;61495;53.400;7.608;2023-05-23T03:59:21;101606.28;;;13.34;90.56
73267;BME280;61495;53.400;7.608;2023-05-23T04:01:46;101608.97;;;13.34;90.63
73267;BME280;61495;53.400;7.608;2023-05-23T04:04:17;101606.06;;;13.22;91.06
73267;BME280;61495;53.400;7.608;2023-05-23T04:06:42;101606.91;;;13.23;90.66
73267;BME280;61495;53.400;7.608;2023-05-23T04:09:08;101611.44;;;13.22;90.23
73267;BME280;61495;53.400;7.608;2023-05-23T04:11:34;101608.75;;;13.22;89.69
73267;BME280;61495;53.400;7.608;2023-05-23T04:13:59;101631.72;;;13.25;89.91
73267;BME280;61495;53.400;7.608;2023-05-23T04:16:26;101596.06;;;12.97;90.17
73267;BME280;61495;53.400;7.608;2023-05-23T04:18:51;101631.66;;;13.05;90.75
73267;BME280;61495;53.400;7.608;2023-05-23T04:21:18;101647.88;;;13.12;89.77
73267;BME280;61495;53.400;7.608;2023-05-23T04:23:43;101637.88;;;13.06;89.98
73267;BME280;61495;53.400;7.608;2023-05-23T04:26:09;101636.19;;;12.92;90.31
73267;BME280;61495;53.400;7.608;2023-05-23T04:28:35;101632.84;;;12.90;90.33
73267;BME280;61495;53.400;7.608;2023-05-23T04:31:02;101638.44;;;12.95;90.20
73267;BME280;61495;53.400;7.608;2023-05-23T04:33:36;101642.41;;;12.99;89.96
73267;BME280;61495;53.400;7.608;2023-05-23T04:36:02;101641.56;;;12.92;89.68
73267;BME280;61495;53.400;7.608;2023-05-23T04:38:27;101647.16;;;12.97;89.57
73267;BME280;61495;53.400;7.608;2023-05-23T04:40:53;101643.41;;;12.85;89.54
73267;BME280;61495;53.400;7.608;2023-05-23T04:43:18;101652.28;;;12.78;90.00
73267;BME280;61495;53.400;7.608;2023-05-23T04:45:44;101663.91;;;12.86;89.28
73267;BME280;61495;53.400;7.608;2023-05-23T04:48:10;101657.25;;;12.81;89.87
73267;BME280;61495;53.400;7.608;2023-05-23T04:50:37;101658.50;;;12.79;90.23
73267;BME280;61495;53.400;7.608;2023-05-23T04:53:04;101668.78;;;12.69;89.71
73267;BME280;61495;53.400;7.608;2023-05-23T04:55:30;101660.53;;;12.77;89.22
73267;BME280;61495;53.400;7.608;2023-05-23T04:57:56;101657.63;;;12.72;90.33
73267;BME280;61495;53.400;7.608;2023-05-23T05:00:22;101661.75;;;12.74;89.96
73267;BME280;61495;53.400;7.608;2023-05-23T05:02:54;101669.97;;;12.60;90.35
73267;BME280;61495;53.400;7.608;2023-05-23T05:05:19;101675.34;;;12.60;91.33
73267;BME280;61495;53.400;7.608;2023-05-23T05:07:44;101681.16;;;12.63;90.42
73267;BME280;61495;53.400;7.608;2023-05-23T05:10:10;101691.13;;;12.69;89.44
73267;BME280;61495;53.400;7.608;2023-05-23T05:12:44;101683.84;;;12.63;90.65
73267;BME280;61495;53.400;7.608;2023-05-23T05:15:14;101694.59;;;12.63;90.98
73267;BME280;61495;53.400;7.608;2023-05-23T05:17:41;101682.97;;;12.56;91.76
73267;BME280;61495;53.400;7.608;2023-05-23T05:20:07;101706.59;;;12.61;91.65
73267;BME280;61495;53.400;7.608;2023-05-23T05:22:34;101722.13;;;12.65;91.48
73267;BME280;61495;53.400;7.608;2023-05-23T05:25:00;101716.94;;;12.64;90.55
73267;BME280;61495;53.400;7.608;2023-05-23T05:27:26;101723.56;;;12.61;91.35
73267;BME280;61495;53.400;7.608;2023-05-23T05:29:52;101724.19;;;12.63;90.71
73267;BME280;61495;53.400;7.608;2023-05-23T05:32:23;101728.31;;;12.66;90.63
73267;BME280;61495;53.400;7.608;2023-05-23T05:34:48;101737.63;;;12.63;90.90
73267;BME280;61495;53.400;7.608;2023-05-23T05:37:15;101736.75;;;12.56;90.23
73267;BME280;61495;53.400;7.608;2023-05-23T05:39:40;101723.06;;;12.51;91.25
73267;BME280;61495;53.400;7.608;2023-05-23T05:42:06;101740.03;;;12.52;91.72
73267;BME280;61495;53.400;7.608;2023-05-23T05:44:31;101737.53;;;12.50;91.30
73267;BME280;61495;53.400;7.608;2023-05-23T05:46:57;101745.53;;;12.37;92.04
73267;BME280;61495;53.400;7.608;2023-05-23T05:49:24;101756.91;;;12.39;91.34
73267;BME280;61495;53.400;7.608;2023-05-23T05:51:49;101755.81;;;12.34;91.58
73267;BME280;61495;53.400;7.608;2023-05-23T05:54:14;101756.44;;;12.36;91.68
73267;BME280;61495;53.400;7.608;2023-05-23T05:56:40;101769.72;;;12.37;91.60
73267;BME280;61495;53.400;7.608;2023-05-23T05:59:06;101774.47;;;12.42;90.64
73267;BME280;61495;53.400;7.608;2023-05-23T06:01:31;101772.16;;;12.32;90.66
73267;BME280;61495;53.400;7.608;2023-05-23T06:03:59;101788.41;;;12.24;91.26
73267;BME280;61495;53.400;7.608;2023-05-23T06:06:25;101792.94;;;12.23;90.73
73267;BME280;61495;53.400;7.608;2023-05-23T06:08:50;101789.25;;;12.24;90.84
73267;BME280;61495;53.400;7.608;2023-05-23T06:11:16;101785.72;;;12.24;90.65
73267;BME280;61495;53.400;7.608;2023-05-23T06:13:41;101779.09;;;12.20;90.97
73267;BME280;61495;53.400;7.608;2023-05-23T06:16:07;101790.06;;;12.25;91.40
73267;BME280;61495;53.400;7.608;2023-05-23T06:18:32;101791.47;;;12.21;90.45
73267;BME280;61495;53.400;7.608;2023-05-23T06:20:58;101797.38;;;12.10;90.84
73267;BME280;61495;53.400;7.608;2023-05-23T06:23:24;101801.34;;;12.14;90.81
73267;BME280;61495;53.400;7.608;2023-05-23T06:25:49;101809.22;;;12.15;90.77
73267;BME280;61495;53.400;7.608;2023-05-23T06:28:15;101806.06;;;12.12;91.09
73267;BME280;61495;53.400;7.608;2023-05-23T06:30:40;101817.88;;;12.11;90.32
73267;BME280;61495;53.400;7.608;2023-05-23T06:33:06;101818.09;;;12.16;90.24
73267;BME280;61495;53.400;7.608;2023-05-23T06:35:31;101819.94;;;12.15;89.94
73267;BME280;61495;53.400;7.608;2023-05-23T06:37:56;101827.94;;;12.09;90.43
73267;BME280;61495;53.400;7.608;2023-05-23T06:40:21;101826.69;;;12.05;90.50
73267;BME280;61495;53.400;7.608;2023-05-23T06:42:47;101826.69;;;12.05;90.07
73267;BME280;61495;53.400;7.608;2023-05-23T06:45:12;101845.22;;;12.00;89.65
73267;BME280;61495;53.400;7.608;2023-05-23T06:47:38;101845.59;;;11.97;89.50
73267;BME280;61495;53.400;7.608;2023-05-23T06:50:03;101840.09;;;11.84;89.81
73267;BME280;61495;53.400;7.608;2023-05-23T06:52:29;101839.78;;;11.93;89.76
73267;BME280;61495;53.400;7.608;2023-05-23T06:54:54;101855.44;;;11.90;89.25
73267;BME280;61495;53.400;7.608;2023-05-23T06:57:19;101850.09;;;11.90;89.26
73267;BME280;61495;53.400;7.608;2023-05-23T06:59:45;101849.53;;;11.80;89.60
73267;BME280;61495;53.400;7.608;2023-05-23T07:02:13;101861.44;;;11.92;89.11
73267;BME280;61495;53.400;7.608;2023-05-23T07:04:39;101873.88;;;11.93;88.61
73267;BME280;61495;53.400;7.608;2023-05-23T07:07:04;101865.16;;;11.91;88.30
73267;BME280;61495;53.400;7.608;2023-05-23T07:09:30;101880.88;;;11.94;88.87
73267;BME280;61495;53.400;7.608;2023-05-23T07:11:55;101865.81;;;11.93;87.86
73267;BME280;61495;53.400;7.608;2023-05-23T07:14:21;101874.97;;;11.98;88.00
73267;BME280;61495;53.400;7.608;2023-05-23T07:16:46;101864.34;;;11.90;87.84
73267;BME280;61495;53.400;7.608;2023-05-23T07:19:12;101892.38;;;12.02;87.97
73267;BME280;61495;53.400;7.608;2023-05-23T07:21:37;101884.88;;;11.98;87.98
73267;BME280;61495;53.400;7.608;2023-05-23T07:24:03;101889.41;;;11.97;87.48
73267;BME280;61495;53.400;7.608;2023-05-23T07:26:28;101898.94;;;12.00;87.33
73267;BME280;61495;53.400;7.608;2023-05-23T07:28:54;101898.34;;;11.83;86.84
73267;BME280;61495;53.400;7.608;2023-05-23T07:31:19;101903.31;;;11.86;86.97
73267;BME280;61495;53.400;7.608;2023-05-23T07:33:47;101917.84;;;11.92;86.65
73267;BME280;61495;53.400;7.608;2023-05-23T07:36:13;101917.34;;;11.82;85.79
73267;BME280;61495;53.400;7.608;2023-05-23T07:38:38;101912.72;;;11.76;85.74
73267;BME280;61495;53.400;7.608;2023-05-23T07:41:04;101916.03;;;11.78;85.70
73267;BME280;61495;53.400;7.608;2023-05-23T07:43:29;101913.44;;;11.84;85.50
73267;BME280;61495;53.400;7.608;2023-05-23T07:45:55;101920.53;;;11.92;85.39
73267;BME280;61495;53.400;7.608;2023-05-23T07:48:21;101937.75;;;11.97;84.67
73267;BME280;61495;53.400;7.608;2023-05-23T07:50:46;101939.88;;;12.02;84.73
73267;BME280;61495;53.400;7.608;2023-05-23T07:53:12;101937.75;;;11.97;83.91
73267;BME280;61495;53.400;7.608;2023-05-23T07:55:38;101930.53;;;11.98;83.68
73267;BME280;61495;53.400;7.608;2023-05-23T07:58:03;101941.91;;;12.00;82.86
73267;BME280;61495;53.400;7.608;2023-05-23T08:00:30;101943.94;;;11.98;82.28
73267;BME280;61495;53.400;7.608;2023-05-23T08:03:05;101953.03;;;11.97;82.26
73267;BME280;61495;53.400;7.608;2023-05-23T08:05:30;101949.41;;;12.04;81.85
73267;BME280;61495;53.400;7.608;2023-05-23T08:07:56;101957.63;;;12.03;82.28
73267;BME280;61495;53.400;7.608;2023-05-23T08:10:21;101969.06;;;12.05;81.85
73267;BME280;61495;53.400;7.608;2023-05-23T08:12:47;101974.88;;;12.08;81.70
73267;BME280;61495;53.400;7.608;2023-05-23T08:15:12;101964.59;;;11.97;81.18
73267;BME280;61495;53.400;7.608;2023-05-23T08:17:38;101979.59;;;12.06;81.33
73267;BME280;61495;53.400;7.608;2023-05-23T08:20:04;101975.81;;;12.01;80.55
73267;BME280;61495;53.400;7.608;2023-05-23T08:22:30;101974.13;;;12.00;80.27
73267;BME280;61495;53.400;7.608;2023-05-23T08:24:55;101974.78;;;12.02;80.24
73267;BME280;61495;53.400;7.608;2023-05-23T08:27:21;101974.41;;;12.05;80.10
73267;BME280;61495;53.400;7.608;2023-05-23T08:29:47;101968.47;;;12.09;80.26
73267;BME280;61495;53.400;7.608;2023-05-23T08:32:13;101967.91;;;12.14;80.02
73267;BME280;61495;53.400;7.608;2023-05-23T08:34:39;101958.63;;;12.16;80.41
73267;BME280;61495;53.400;7.608;2023-05-23T08:37:04;101981.78;;;12.17;80.06
73267;BME280;61495;53.400;7.608;2023-05-23T08:39:30;101990.84;;;12.31;80.51
73267;BME280;61495;53.400;7.608;2023-05-23T08:41:55;101981.78;;;12.32;80.78
73267;BME280;61495;53.400;7.608;2023-05-23T08:44:21;101983.50;;;12.40;80.59
73267;BME280;61495;53.400;7.608;2023-05-23T08:46:46;101990.97;;;12.44;80.63
73267;BME280;61495;53.400;7.608;2023-05-23T08:49:16;101992.00;;;12.43;78.90
73267;BME280;61495;53.400;7.608;2023-05-23T08:51:42;101992.41;;;12.40;77.03
73267;BME280;61495;53.400;7.608;2023-05-23T08:54:09;101999.06;;;12.65;77.19
73267;BME280;61495;53.400;7.608;2023-05-23T08:56:37;101975.59;;;13.02;78.36
73267;BME280;61495;53.400;7.608;2023-05-23T08:59:03;101995.16;;;13.10;77.94
73267;BME280;61495;53.400;7.608;2023-05-23T09:01:29;101993.59;;;13.01;76.64
73267;BME280;61495;53.400;7.608;2023-05-23T09:04:00;102001.09;;;13.06;77.43
73267;BME280;61495;53.400;7.608;2023-05-23T09:06:29;102013.25;;;13.02;77.27
73267;BME280;61495;53.400;7.608;2023-05-23T09:08:56;102010.38;;;13.03;77.47
73267;BME280;61495;53.400;7.608;2023-05-23T09:11:22;102006.75;;;13.11;76.67
73267;BME280;61495;53.400;7.608;2023-05-23T09:13:48;102005.97;;;13.17;75.76
73267;BME280;61495;53.400;7.608;2023-05-23T09:16:15;102012.25;;;13.24;75.51
73267;BME280;61495;53.400;7.608;2023-05-23T09:18:43;102022.47;;;13.35;75.63
73267;BME280;61495;53.400;7.608;2023-05-23T09:21:10;102020.66;;;13.42;76.12
73267;BME280;61495;53.400;7.608;2023-05-23T09:23:38;102035.16;;;13.41;75.33
73267;BME280;61495;53.400;7.608;2023-05-23T09:26:05;102008.50;;;13.25;74.47
73267;BME280;61495;53.400;7.608;2023-05-23T09:28:32;102031.81;;;13.39;75.25
73267;BME280;61495;53.400;7.608;2023-05-23T09:31:05;102035.19;;;13.48;74.63
73267;BME280;61495;53.400;7.608;2023-05-23T09:33:50;102034.34;;;13.47;74.40
73267;BME280;61495;53.400;7.608;2023-05-23T09:36:16;102030.63;;;13.48;73.00
73267;BME280;61495;53.400;7.608;2023-05-23T09:38:43;102028.63;;;13.57;73.88
73267;BME280;61495;53.400;7.608;2023-05-23T09:41:09;102049.00;;;13.66;73.21
73267;BME280;61495;53.400;7.608;2023-05-23T09:43:53;102042.41;;;13.75;73.68
73267;BME280;61495;53.400;7.608;2023-05-23T09:46:20;102036.91;;;13.89;73.64
73267;BME280;61495;53.400;7.608;2023-05-23T09:48:47;102035.47;;;13.93;72.96
73267;BME280;61495;53.400;7.608;2023-05-23T09:51:13;102040.47;;;13.97;72.51
73267;BME280;61495;53.400;7.608;2023-05-23T09:53:38;102035.94;;;14.04;72.88
73267;BME280;61495;53.400;7.608;2023-05-23T09:56:04;102046.94;;;14.09;71.80
73267;BME280;61495;53.400;7.608;2023-05-23T09:58:32;102055.03;;;14.09;70.48
73267;BME280;61495;53.400;7.608;2023-05-23T10:00:59;102052.16;;;14.17;70.69
73267;BME280;61495;53.400;7.608;2023-05-23T10:03:52;102059.28;;;14.31;71.55
73267;BME280;61495;53.400;7.608;2023-05-23T10:06:30;102053.91;;;14.31;71.44
73267;BME280;61495;53.400;7.608;2023-05-23T10:09:05;102080.88;;;14.31;69.43
73267;BME280;61495;53.400;7.608;2023-05-23T10:13:58;102063.06;;;14.36;70.44
73267;BME280;61495;53.400;7.608;2023-05-23T10:16:50;102064.78;;;14.51;70.14
73267;BME280;61495;53.400;7.608;2023-05-23T10:19:33;102045.06;;;14.50;69.62
73267;BME280;61495;53.400;7.608;2023-05-23T10:22:03;102065.19;;;14.48;69.52
73267;BME280;61495;53.400;7.608;2023-05-23T10:24:31;102060.41;;;14.43;68.59
73267;BME280;61495;53.400;7.608;2023-05-23T10:26:57;102073.25;;;14.41;68.09
73267;BME280;61495;53.400;7.608;2023-05-23T10:29:24;102076.78;;;14.41;68.45
73267;BME280;61495;53.400;7.608;2023-05-23T10:31:50;102078.03;;;14.45;68.54
73267;BME280;61495;53.400;7.608;2023-05-23T10:37:47;102075.59;;;14.57;68.86
73267;BME280;61495;53.400;7.608;2023-05-23T10:41:15;102077.06;;;14.66;68.67
73267;BME280;61495;53.400;7.608;2023-05-23T10:46:08;102069.19;;;14.71;68.55
73267;BME280;61495;53.400;7.608;2023-05-23T10:48:40;102077.50;;;14.70;67.46
73267;BME280;61495;53.400;7.608;2023-05-23T10:51:07;102080.59;;;14.60;66.79
73267;BME280;61495;53.400;7.608;2023-05-23T10:53:37;102073.91;;;14.56;66.37
73267;BME280;61495;53.400;7.608;2023-05-23T10:56:07;102083.06;;;14.62;67.56
73267;BME280;61495;53.400;7.608;2023-05-23T10:58:34;102089.34;;;14.75;68.06
73267;BME280;61495;53.400;7.608;2023-05-23T11:01:01;102084.75;;;14.69;67.66
73267;BME280;61495;53.400;7.608;2023-05-23T11:03:47;102088.31;;;14.70;67.53
73267;BME280;61495;53.400;7.608;2023-05-23T11:06:37;102086.00;;;14.73;67.23
73267;BME280;61495;53.400;7.608;2023-05-23T11:09:10;102085.19;;;14.79;67.55
73267;BME280;61495;53.400;7.608;2023-05-23T11:14:13;102083.13;;;14.88;67.14
73267;BME280;61495;53.400;7.608;2023-05-23T11:16:40;102094.34;;;14.78;64.35
73267;BME280;61495;53.400;7.608;2023-05-23T11:21:54;102096.38;;;14.76;65.21
73267;BME280;61495;53.400;7.608;2023-05-23T11:24:20;102096.44;;;14.89;65.53
73267;BME280;61495;53.400;7.608;2023-05-23T11:26:58;102093.50;;;14.91;65.27
73267;BME280;61495;53.400;7.608;2023-05-23T11:29:28;102099.16;;;15.02;65.78
73267;BME280;61495;53.400;7.608;2023-05-23T11:31:54;102098.75;;;15.19;65.86
73267;BME280;61495;53.400;7.608;2023-05-23T11:34:26;102108.72;;;15.18;64.73
73267;BME280;61495;53.400;7.608;2023-05-23T11:36:53;102096.88;;;15.13;64.19
73267;BME280;61495;53.400;7.608;2023-05-23T11:39:19;102098.97;;;15.24;65.58
73267;BME280;61495;53.400;7.608;2023-05-23T11:41:59;102110.19;;;15.34;65.75
73267;BME280;61495;53.400;7.608;2023-05-23T11:44:25;102099.84;;;15.44;65.78
73267;BME280;61495;53.400;7.608;2023-05-23T11:49:30;102115.03;;;15.51;65.72
73267;BME280;61495;53.400;7.608;2023-05-23T11:51:56;102106.91;;;15.58;66.07
73267;BME280;61495;53.400;7.608;2023-05-23T11:54:23;102111.47;;;15.51;64.14
73267;BME280;61495;53.400;7.608;2023-05-23T11:56:50;102117.31;;;15.61;63.99
73267;BME280;61495;53.400;7.608;2023-05-23T11:59:15;102108.78;;;15.51;63.16
73267;BME280;61495;53.400;7.608;2023-05-23T12:01:42;102104.81;;;15.60;64.03
73267;BME280;61495;53.400;7.608;2023-05-23T12:04:11;102121.06;;;15.47;63.05
73267;BME280;61495;53.400;7.608;2023-05-23T12:06:39;102115.66;;;15.47;62.68
73267;BME280;61495;53.400;7.608;2023-05-23T12:09:10;102116.06;;;15.57;63.28
73267;BME280;61495;53.400;7.608;2023-05-23T12:11:38;102109.41;;;15.66;63.79
73267;BME280;61495;53.400;7.608;2023-05-23T12:14:05;102103.97;;;15.86;65.02
73267;BME280;61495;53.400;7.608;2023-05-23T12:16:35;102126.84;;;15.90;63.80
73267;BME280;61495;53.400;7.608;2023-05-23T12:19:01;102127.88;;;15.89;63.79
73267;BME280;61495;53.400;7.608;2023-05-23T12:21:46;102132.84;;;15.92;63.22
73267;BME280;61495;53.400;7.608;2023-05-23T12:24:15;102126.00;;;15.96;62.70
73267;BME280;61495;53.400;7.608;2023-05-23T12:26:57;102126.00;;;16.02;63.01
73267;BME280;61495;53.400;7.608;2023-05-23T12:31:57;102126.41;;;16.06;62.96
73267;BME280;61495;53.400;7.608;2023-05-23T12:34:23;102133.84;;;16.17;63.09
73267;BME280;61495;53.400;7.608;2023-05-23T12:36:48;102134.28;;;16.14;61.58
73267;BME280;61495;53.400;7.608;2023-05-23T12:39:14;102129.47;;;16.16;62.74
73267;BME280;61495;53.400;7.608;2023-05-23T12:41:43;102128.44;;;16.24;61.51
73267;BME280;61495;53.400;7.608;2023-05-23T12:44:09;102145.25;;;16.32;61.25
73267;BME280;61495;53.400;7.608;2023-05-23T12:46:34;102139.63;;;16.34;61.40
73267;BME280;61495;53.400;7.608;2023-05-23T12:49:00;102139.69;;;16.07;60.73
73267;BME280;61495;53.400;7.608;2023-05-23T12:51:25;102132.59;;;16.20;61.66
73267;BME280;61495;53.400;7.608;2023-05-23T12:53:51;102136.50;;;16.37;61.56
73267;BME280;61495;53.400;7.608;2023-05-23T12:56:16;102138.78;;;16.40;61.94
73267;BME280;61495;53.400;7.608;2023-05-23T12:58:41;102138.38;;;16.36;61.43
73267;BME280;61495;53.400;7.608;2023-05-23T13:01:07;102153.31;;;16.52;62.88
73267;BME280;61495;53.400;7.608;2023-05-23T13:03:36;102143.75;;;16.49;61.58
73267;BME280;61495;53.400;7.608;2023-05-23T13:06:02;102141.25;;;16.54;62.09
73267;BME280;61495;53.400;7.608;2023-05-23T13:08:27;102147.88;;;16.65;61.63
73267;BME280;61495;53.400;7.608;2023-05-23T13:10:53;102146.44;;;16.62;61.49
73267;BME280;61495;53.400;7.608;2023-05-23T13:13:19;102130.03;;;16.51;62.15